sensor_id;sensor_type;location;lat;lon;timestamp;P1;durP1;ratioP1;P2;durP2;ratioP2
8042;SDS011;4064;48.132;11.366;2023-04-08T00:02:03;13.07;;;9.97;;
8042;SDS011;4064;48.132;11.366;2023-04-08T00:04:28;11.60;;;10.40;;
8042;SDS011;4064;48.132;11.366;2023-04-08T00:06:55;11.00;;;9.85;;
8042;SDS011;4064;48.132;11.366;2023-04-08T00:09:21;10.70;;;9.60;;
8042;SDS011;4064;48.132;11.366;2023-04-08T00:11:47;13.23;;;9.10;;
8042;SDS011;4064;48.132;11.366;2023-04-08T00:14:13;14.53;;;9.90;;
8042;SDS011;4064;48.132;11.366;2023-04-08T00:16:39;10.60;;;9.37;;
8042;SDS011;4064;48.132;11.366;2023-04-08T00:19:04;15.80;;;10.27;;
8042;SDS011;4064;48.132;11.366;2023-04-08T00:21:30;13.00;;;9.83;;
8042;SDS011;4064;48.132;11.366;2023-04-08T00:23:56;9.97;;;8.97;;
8042;SDS011;4064;48.132;11.366;2023-04-08T00:26:22;9.83;;;8.93;;
8042;SDS011;4064;48.132;11.366;2023-04-08T00:28:48;9.77;;;8.87;;
8042;SDS011;4064;48.132;11.366;2023-04-08T00:31:13;12.00;;;10.27;;
8042;SDS011;4064;48.132;11.366;2023-04-08T00:33:39;10.87;;;9.80;;
8042;SDS011;4064;48.132;11.366;2023-04-08T00:36:05;10.20;;;9.07;;
8042;SDS011;4064;48.132;11.366;2023-04-08T00:38:31;10.33;;;9.13;;
8042;SDS011;4064;48.132;11.366;2023-04-08T00:40:57;11.10;;;9.93;;
8042;SDS011;4064;48.132;11.366;2023-04-08T00:43:22;10.97;;;9.87;;
8042;SDS011;4064;48.132;11.366;2023-04-08T00:45:48;11.63;;;9.07;;
8042;SDS011;4064;48.132;11.366;2023-04-08T00:48:14;9.60;;;8.70;;
8042;SDS011;4064;48.132;11.366;2023-04-08T00:50:42;10.35;;;9.25;;
8042;SDS011;4064;48.132;11.366;2023-04-08T00:53:10;11.77;;;9.77;;
8042;SDS011;4064;48.132;11.366;2023-04-08T00:55:37;9.27;;;8.30;;
8042;SDS011;4064;48.132;11.366;2023-04-08T00:58:03;10.45;;;8.15;;
8042;SDS011;4064;48.132;11.366;2023-04-08T01:00:29;9.57;;;8.40;;
8042;SDS011;4064;48.132;11.366;2023-04-08T01:03:09;9.88;;;8.63;;
8042;SDS011;4064;48.132;11.366;2023-04-08T01:06:09;10.50;;;9.35;;
8042;SDS011;4064;48.132;11.366;2023-04-08T01:08:44;11.88;;;9.65;;
8042;SDS011;4064;48.132;11.366;2023-04-08T01:11:12;12.13;;;9.65;;
8042;SDS011;4064;48.132;11.366;2023-04-08T01:13:39;8.93;;;8.02;;
8042;SDS011;4064;48.132;11.366;2023-04-08T01:16:08;9.38;;;8.45;;
8042;SDS011;4064;48.132;11.366;2023-04-08T01:18:37;9.65;;;8.65;;
8042;SDS011;4064;48.132;11.366;2023-04-08T01:21:05;10.10;;;9.00;;
8042;SDS011;4064;48.132;11.366;2023-04-08T01:26:20;11.25;;;8.35;;
8042;SDS011;4064;48.132;11.366;2023-04-08T01:28:48;11.68;;;9.70;;
8042;SDS011;4064;48.132;11.366;2023-04-08T01:31:17;11.50;;;8.98;;
8042;SDS011;4064;48.132;11.366;2023-04-08T01:33:44;10.38;;;9.13;;
8042;SDS011;4064;48.132;11.366;2023-04-08T01:36:12;11.55;;;8.48;;
8042;SDS011;4064;48.132;11.366;2023-04-08T01:38:39;11.30;;;9.80;;
8042;SDS011;4064;48.132;11.366;2023-04-08T01:41:08;11.43;;;10.30;;
8042;SDS011;4064;48.132;11.366;2023-04-08T01:43:35;12.13;;;10.02;;
8042;SDS011;4064;48.132;11.366;2023-04-08T01:46:05;9.48;;;8.57;;
8042;SDS011;4064;48.132;11.366;2023-04-08T01:48:33;12.43;;;10.32;;
8042;SDS011;4064;48.132;11.366;2023-04-08T01:51:01;12.40;;;11.10;;
8042;SDS011;4064;48.132;11.366;2023-04-08T01:53:29;12.20;;;10.40;;
8042;SDS011;4064;48.132;11.366;2023-04-08T01:55:56;14.48;;;10.27;;
8042;SDS011;4064;48.132;11.366;2023-04-08T01:58:28;12.57;;;11.18;;
8042;SDS011;4064;48.132;11.366;2023-04-08T02:01:00;11.80;;;10.30;;
8042;SDS011;4064;48.132;11.366;2023-04-08T02:03:28;13.85;;;10.93;;
8042;SDS011;4064;48.132;11.366;2023-04-08T02:05:55;14.93;;;10.23;;
8042;SDS011;4064;48.132;11.366;2023-04-08T02:08:22;14.15;;;10.35;;
8042;SDS011;4064;48.132;11.366;2023-04-08T02:10:48;15.32;;;12.88;;
8042;SDS011;4064;48.132;11.366;2023-04-08T02:13:14;14.82;;;10.30;;
8042;SDS011;4064;48.132;11.366;2023-04-08T02:15:41;12.00;;;9.18;;
8042;SDS011;4064;48.132;11.366;2023-04-08T02:18:16;14.48;;;10.93;;
8042;SDS011;4064;48.132;11.366;2023-04-08T02:20:56;11.35;;;9.45;;
8042;SDS011;4064;48.132;11.366;2023-04-08T02:23:50;15.10;;;10.52;;
8042;SDS011;4064;48.132;11.366;2023-04-08T02:26:17;13.30;;;10.80;;
8042;SDS011;4064;48.132;11.366;2023-04-08T02:28:44;13.35;;;10.35;;
8042;SDS011;4064;48.132;11.366;2023-04-08T02:31:13;14.75;;;11.43;;
8042;SDS011;4064;48.132;11.366;2023-04-08T02:33:42;12.80;;;11.20;;
8042;SDS011;4064;48.132;11.366;2023-04-08T02:36:11;12.70;;;11.15;;
8042;SDS011;4064;48.132;11.366;2023-04-08T02:38:39;14.60;;;11.25;;
8042;SDS011;4064;48.132;11.366;2023-04-08T02:41:05;12.70;;;11.05;;
8042;SDS011;4064;48.132;11.366;2023-04-08T02:43:31;12.67;;;10.57;;
8042;SDS011;4064;48.132;11.366;2023-04-08T02:45:57;13.10;;;10.70;;
8042;SDS011;4064;48.132;11.366;2023-04-08T02:48:24;13.48;;;11.95;;
8042;SDS011;4064;48.132;11.366;2023-04-08T02:50:50;12.40;;;10.93;;
8042;SDS011;4064;48.132;11.366;2023-04-08T02:53:16;13.70;;;12.30;;
8042;SDS011;4064;48.132;11.366;2023-04-08T02:55:41;16.50;;;12.20;;
8042;SDS011;4064;48.132;11.366;2023-04-08T02:58:07;12.57;;;11.23;;
8042;SDS011;4064;48.132;11.366;2023-04-08T03:00:33;13.83;;;12.03;;
8042;SDS011;4064;48.132;11.366;2023-04-08T03:02:59;13.38;;;11.98;;
8042;SDS011;4064;48.132;11.366;2023-04-08T03:05:25;13.90;;;11.27;;
8042;SDS011;4064;48.132;11.366;2023-04-08T03:07:51;14.40;;;11.50;;
8042;SDS011;4064;48.132;11.366;2023-04-08T03:10:17;14.60;;;11.50;;
8042;SDS011;4064;48.132;11.366;2023-04-08T03:12:43;13.03;;;11.60;;
8042;SDS011;4064;48.132;11.366;2023-04-08T03:15:08;13.93;;;11.80;;
8042;SDS011;4064;48.132;11.366;2023-04-08T03:17:34;14.47;;;12.53;;
8042;SDS011;4064;48.132;11.366;2023-04-08T03:20:00;14.23;;;12.80;;
8042;SDS011;4064;48.132;11.366;2023-04-08T03:22:29;19.25;;;13.65;;
8042;SDS011;4064;48.132;11.366;2023-04-08T03:24:55;15.30;;;12.52;;
8042;SDS011;4064;48.132;11.366;2023-04-08T03:27:20;16.40;;;12.50;;
8042;SDS011;4064;48.132;11.366;2023-04-08T03:29:46;14.30;;;12.90;;
8042;SDS011;4064;48.132;11.366;2023-04-08T03:32:12;16.47;;;14.10;;
8042;SDS011;4064;48.132;11.366;2023-04-08T03:34:38;14.90;;;12.87;;
8042;SDS011;4064;48.132;11.366;2023-04-08T03:37:04;14.80;;;12.23;;
8042;SDS011;4064;48.132;11.366;2023-04-08T03:39:30;15.77;;;14.10;;
8042;SDS011;4064;48.132;11.366;2023-04-08T03:41:56;14.40;;;12.90;;
8042;SDS011;4064;48.132;11.366;2023-04-08T03:44:23;15.82;;;12.85;;
8042;SDS011;4064;48.132;11.366;2023-04-08T03:46:49;15.15;;;13.50;;
8042;SDS011;4064;48.132;11.366;2023-04-08T03:49:15;14.53;;;13.03;;
8042;SDS011;4064;48.132;11.366;2023-04-08T03:51:41;15.83;;;12.77;;
8042;SDS011;4064;48.132;11.366;2023-04-08T03:54:07;18.00;;;12.73;;
8042;SDS011;4064;48.132;11.366;2023-04-08T03:56:32;18.90;;;14.40;;
8042;SDS011;4064;48.132;11.366;2023-04-08T03:58:58;16.53;;;14.40;;
8042;SDS011;4064;48.132;11.366;2023-04-08T04:01:24;17.08;;;15.13;;
8042;SDS011;4064;48.132;11.366;2023-04-08T04:03:50;17.50;;;15.30;;
8042;SDS011;4064;48.132;11.366;2023-04-08T04:06:16;21.70;;;15.47;;
8042;SDS011;4064;48.132;11.366;2023-04-08T04:08:42;18.57;;;15.83;;
8042;SDS011;4064;48.132;11.366;2023-04-08T04:11:07;17.43;;;15.07;;
8042;SDS011;4064;48.132;11.366;2023-04-08T04:13:34;17.77;;;15.82;;
8042;SDS011;4064;48.132;11.366;2023-04-08T04:16:00;16.77;;;14.30;;
8042;SDS011;4064;48.132;11.366;2023-04-08T04:18:25;21.00;;;16.80;;
8042;SDS011;4064;48.132;11.366;2023-04-08T04:20:51;17.37;;;15.60;;
8042;SDS011;4064;48.132;11.366;2023-04-08T04:23:17;18.23;;;15.83;;
8042;SDS011;4064;48.132;11.366;2023-04-08T04:25:42;21.53;;;15.77;;
8042;SDS011;4064;48.132;11.366;2023-04-08T04:28:08;18.63;;;15.80;;
8042;SDS011;4064;48.132;11.366;2023-04-08T04:30:37;20.90;;;17.73;;
8042;SDS011;4064;48.132;11.366;2023-04-08T04:33:04;21.60;;;16.65;;
8042;SDS011;4064;48.132;11.366;2023-04-08T04:35:31;20.75;;;17.35;;
8042;SDS011;4064;48.132;11.366;2023-04-08T04:37:57;19.55;;;16.15;;
8042;SDS011;4064;48.132;11.366;2023-04-08T04:40:23;22.77;;;18.13;;
8042;SDS011;4064;48.132;11.366;2023-04-08T04:42:49;25.75;;;16.85;;
8042;SDS011;4064;48.132;11.366;2023-04-08T04:45:15;21.63;;;15.53;;
8042;SDS011;4064;48.132;11.366;2023-04-08T04:47:41;21.30;;;17.60;;
8042;SDS011;4064;48.132;11.366;2023-04-08T04:50:06;17.80;;;15.90;;
8042;SDS011;4064;48.132;11.366;2023-04-08T04:52:34;22.65;;;17.75;;
8042;SDS011;4064;48.132;11.366;2023-04-08T04:55:01;17.50;;;14.83;;
8042;SDS011;4064;48.132;11.366;2023-04-08T04:57:27;19.27;;;17.17;;
8042;SDS011;4064;48.132;11.366;2023-04-08T04:59:53;19.10;;;16.17;;
8042;SDS011;4064;48.132;11.366;2023-04-08T05:02:19;17.63;;;15.73;;
8042;SDS011;4064;48.132;11.366;2023-04-08T05:04:45;19.05;;;17.00;;
8042;SDS011;4064;48.132;11.366;2023-04-08T05:07:11;18.27;;;16.27;;
8042;SDS011;4064;48.132;11.366;2023-04-08T05:09:37;20.30;;;16.47;;
8042;SDS011;4064;48.132;11.366;2023-04-08T05:12:02;23.70;;;17.60;;
8042;SDS011;4064;48.132;11.366;2023-04-08T05:14:28;20.73;;;16.20;;
8042;SDS011;4064;48.132;11.366;2023-04-08T05:16:55;19.20;;;16.80;;
8042;SDS011;4064;48.132;11.366;2023-04-08T05:19:21;19.80;;;16.33;;
8042;SDS011;4064;48.132;11.366;2023-04-08T05:21:47;18.73;;;15.53;;
8042;SDS011;4064;48.132;11.366;2023-04-08T05:24:13;19.43;;;15.47;;
8042;SDS011;4064;48.132;11.366;2023-04-08T05:26:39;19.73;;;15.30;;
8042;SDS011;4064;48.132;11.366;2023-04-08T05:29:05;16.50;;;14.73;;
8042;SDS011;4064;48.132;11.366;2023-04-08T05:31:31;21.03;;;14.70;;
8042;SDS011;4064;48.132;11.366;2023-04-08T05:33:57;16.97;;;15.13;;
8042;SDS011;4064;48.132;11.366;2023-04-08T05:36:22;22.30;;;16.50;;
8042;SDS011;4064;48.132;11.366;2023-04-08T05:38:48;21.30;;;15.30;;
8042;SDS011;4064;48.132;11.366;2023-04-08T05:41:15;17.43;;;15.00;;
8042;SDS011;4064;48.132;11.366;2023-04-08T05:43:41;15.53;;;13.87;;
8042;SDS011;4064;48.132;11.366;2023-04-08T05:46:07;16.07;;;14.20;;
8042;SDS011;4064;48.132;11.366;2023-04-08T05:48:33;14.03;;;12.50;;
8042;SDS011;4064;48.132;11.366;2023-04-08T05:51:00;14.83;;;13.27;;
8042;SDS011;4064;48.132;11.366;2023-04-08T05:53:26;15.20;;;13.47;;
8042;SDS011;4064;48.132;11.366;2023-04-08T05:55:52;14.57;;;12.93;;
8042;SDS011;4064;48.132;11.366;2023-04-08T05:58:17;14.43;;;12.93;;
8042;SDS011;4064;48.132;11.366;2023-04-08T06:00:43;14.40;;;12.90;;
8042;SDS011;4064;48.132;11.366;2023-04-08T06:03:09;14.23;;;12.73;;
8042;SDS011;4064;48.132;11.366;2023-04-08T06:05:35;15.20;;;13.30;;
8042;SDS011;4064;48.132;11.366;2023-04-08T06:08:00;15.67;;;13.83;;
8042;SDS011;4064;48.132;11.366;2023-04-08T06:10:26;14.20;;;12.47;;
8042;SDS011;4064;48.132;11.366;2023-04-08T06:12:52;13.70;;;12.27;;
8042;SDS011;4064;48.132;11.366;2023-04-08T06:15:17;17.00;;;12.37;;
8042;SDS011;4064;48.132;11.366;2023-04-08T06:17:43;12.20;;;11.00;;
8042;SDS011;4064;48.132;11.366;2023-04-08T06:20:09;19.80;;;12.97;;
8042;SDS011;4064;48.132;11.366;2023-04-08T06:22:35;13.77;;;12.37;;
8042;SDS011;4064;48.132;11.366;2023-04-08T06:25:02;13.80;;;12.27;;
8042;SDS011;4064;48.132;11.366;2023-04-08T06:27:28;15.20;;;12.33;;
8042;SDS011;4064;48.132;11.366;2023-04-08T06:29:54;14.73;;;12.80;;
8042;SDS011;4064;48.132;11.366;2023-04-08T06:32:20;15.43;;;13.83;;
8042;SDS011;4064;48.132;11.366;2023-04-08T06:34:46;14.23;;;12.77;;
8042;SDS011;4064;48.132;11.366;2023-04-08T06:37:12;15.87;;;14.33;;
8042;SDS011;4064;48.132;11.366;2023-04-08T06:39:39;15.77;;;13.87;;
8042;SDS011;4064;48.132;11.366;2023-04-08T06:42:05;16.03;;;14.37;;
8042;SDS011;4064;48.132;11.366;2023-04-08T06:44:31;15.00;;;13.33;;
8042;SDS011;4064;48.132;11.366;2023-04-08T06:46:57;16.87;;;15.10;;
8042;SDS011;4064;48.132;11.366;2023-04-08T06:49:23;16.90;;;14.30;;
8042;SDS011;4064;48.132;11.366;2023-04-08T06:51:49;17.47;;;13.80;;
8042;SDS011;4064;48.132;11.366;2023-04-08T06:54:14;18.00;;;14.13;;
8042;SDS011;4064;48.132;11.366;2023-04-08T06:56:40;19.37;;;16.17;;
8042;SDS011;4064;48.132;11.366;2023-04-08T06:59:07;18.87;;;15.33;;
8042;SDS011;4064;48.132;11.366;2023-04-08T07:01:33;18.17;;;15.37;;
8042;SDS011;4064;48.132;11.366;2023-04-08T07:03:58;23.63;;;18.50;;
8042;SDS011;4064;48.132;11.366;2023-04-08T07:06:26;21.20;;;18.73;;
8042;SDS011;4064;48.132;11.366;2023-04-08T07:08:52;23.43;;;20.03;;
8042;SDS011;4064;48.132;11.366;2023-04-08T07:11:18;21.73;;;19.40;;
8042;SDS011;4064;48.132;11.366;2023-04-08T07:13:43;19.70;;;17.17;;
8042;SDS011;4064;48.132;11.366;2023-04-08T07:16:09;21.87;;;19.07;;
8042;SDS011;4064;48.132;11.366;2023-04-08T07:18:36;19.03;;;17.03;;
8042;SDS011;4064;48.132;11.366;2023-04-08T07:21:02;22.20;;;18.03;;
8042;SDS011;4064;48.132;11.366;2023-04-08T07:23:28;25.37;;;18.97;;
8042;SDS011;4064;48.132;11.366;2023-04-08T07:25:54;21.77;;;17.27;;
8042;SDS011;4064;48.132;11.366;2023-04-08T07:28:20;20.03;;;17.87;;
8042;SDS011;4064;48.132;11.366;2023-04-08T07:30:46;23.30;;;17.70;;
8042;SDS011;4064;48.132;11.366;2023-04-08T07:33:11;20.40;;;18.20;;
8042;SDS011;4064;48.132;11.366;2023-04-08T07:35:37;20.47;;;18.30;;
8042;SDS011;4064;48.132;11.366;2023-04-08T07:38:03;21.70;;;18.77;;
8042;SDS011;4064;48.132;11.366;2023-04-08T07:40:33;21.43;;;18.17;;
8042;SDS011;4064;48.132;11.366;2023-04-08T07:42:58;20.40;;;17.07;;
8042;SDS011;4064;48.132;11.366;2023-04-08T07:45:24;21.43;;;16.97;;
8042;SDS011;4064;48.132;11.366;2023-04-08T07:47:50;20.87;;;18.57;;
8042;SDS011;4064;48.132;11.366;2023-04-08T07:50:16;19.60;;;17.27;;
8042;SDS011;4064;48.132;11.366;2023-04-08T07:52:42;22.80;;;19.80;;
8042;SDS011;4064;48.132;11.366;2023-04-08T07:55:08;19.90;;;17.90;;
8042;SDS011;4064;48.132;11.366;2023-04-08T07:57:34;19.93;;;17.73;;
8042;SDS011;4064;48.132;11.366;2023-04-08T08:00:00;20.60;;;18.40;;
8042;SDS011;4064;48.132;11.366;2023-04-08T08:02:25;21.57;;;19.20;;
8042;SDS011;4064;48.132;11.366;2023-04-08T08:04:51;22.43;;;19.63;;
8042;SDS011;4064;48.132;11.366;2023-04-08T08:07:17;20.30;;;18.20;;
8042;SDS011;4064;48.132;11.366;2023-04-08T08:09:43;20.47;;;18.27;;
8042;SDS011;4064;48.132;11.366;2023-04-08T08:12:08;20.53;;;17.90;;
8042;SDS011;4064;48.132;11.366;2023-04-08T08:14:35;18.87;;;16.83;;
8042;SDS011;4064;48.132;11.366;2023-04-08T08:17:02;19.40;;;17.40;;
8042;SDS011;4064;48.132;11.366;2023-04-08T08:19:28;18.17;;;16.27;;
8042;SDS011;4064;48.132;11.366;2023-04-08T08:21:54;19.70;;;17.60;;
8042;SDS011;4064;48.132;11.366;2023-04-08T08:24:21;18.00;;;16.00;;
8042;SDS011;4064;48.132;11.366;2023-04-08T08:26:47;20.60;;;17.33;;
8042;SDS011;4064;48.132;11.366;2023-04-08T08:29:13;17.60;;;15.90;;
8042;SDS011;4064;48.132;11.366;2023-04-08T08:31:39;18.90;;;16.60;;
8042;SDS011;4064;48.132;11.366;2023-04-08T08:34:05;16.67;;;14.93;;
8042;SDS011;4064;48.132;11.366;2023-04-08T08:36:30;17.50;;;15.80;;
8042;SDS011;4064;48.132;11.366;2023-04-08T08:38:56;16.47;;;14.67;;
8042;SDS011;4064;48.132;11.366;2023-04-08T08:41:22;17.37;;;15.63;;
8042;SDS011;4064;48.132;11.366;2023-04-08T08:43:48;21.00;;;17.83;;
8042;SDS011;4064;48.132;11.366;2023-04-08T08:46:15;21.30;;;16.20;;
8042;SDS011;4064;48.132;11.366;2023-04-08T08:48:43;19.03;;;17.00;;
8042;SDS011;4064;48.132;11.366;2023-04-08T08:51:10;18.30;;;16.40;;
8042;SDS011;4064;48.132;11.366;2023-04-08T08:53:37;17.30;;;15.43;;
8042;SDS011;4064;48.132;11.366;2023-04-08T08:56:03;18.63;;;15.50;;
8042;SDS011;4064;48.132;11.366;2023-04-08T08:58:33;15.70;;;14.17;;
8042;SDS011;4064;48.132;11.366;2023-04-08T09:00:59;16.67;;;14.00;;
8042;SDS011;4064;48.132;11.366;2023-04-08T09:03:25;21.60;;;15.10;;
8042;SDS011;4064;48.132;11.366;2023-04-08T09:05:59;18.93;;;16.67;;
8042;SDS011;4064;48.132;11.366;2023-04-08T09:08:42;23.43;;;17.67;;
8042;SDS011;4064;48.132;11.366;2023-04-08T09:11:15;17.87;;;15.87;;
8042;SDS011;4064;48.132;11.366;2023-04-08T09:13:46;18.20;;;15.13;;
8042;SDS011;4064;48.132;11.366;2023-04-08T09:16:12;17.47;;;15.70;;
8042;SDS011;4064;48.132;11.366;2023-04-08T09:18:42;16.40;;;14.70;;
8042;SDS011;4064;48.132;11.366;2023-04-08T09:21:10;19.33;;;14.80;;
8042;SDS011;4064;48.132;11.366;2023-04-08T09:23:47;15.87;;;14.27;;
8042;SDS011;4064;48.132;11.366;2023-04-08T09:26:16;14.67;;;13.27;;
8042;SDS011;4064;48.132;11.366;2023-04-08T09:28:59;18.80;;;13.70;;
8042;SDS011;4064;48.132;11.366;2023-04-08T09:31:34;15.30;;;13.80;;
8042;SDS011;4064;48.132;11.366;2023-04-08T09:36:39;14.87;;;13.33;;
8042;SDS011;4064;48.132;11.366;2023-04-08T09:39:05;17.40;;;15.70;;
8042;SDS011;4064;48.132;11.366;2023-04-08T09:41:34;16.43;;;14.70;;
8042;SDS011;4064;48.132;11.366;2023-04-08T09:44:05;16.70;;;15.00;;
8042;SDS011;4064;48.132;11.366;2023-04-08T09:49:19;16.17;;;14.47;;
8042;SDS011;4064;48.132;11.366;2023-04-08T09:52:00;16.73;;;14.80;;
8042;SDS011;4064;48.132;11.366;2023-04-08T09:55:03;16.63;;;14.93;;
8042;SDS011;4064;48.132;11.366;2023-04-08T09:57:42;17.63;;;13.90;;
8042;SDS011;4064;48.132;11.366;2023-04-08T10:00:31;18.90;;;16.87;;
8042;SDS011;4064;48.132;11.366;2023-04-08T10:03:19;21.70;;;18.43;;
8042;SDS011;4064;48.132;11.366;2023-04-08T10:05:55;19.60;;;16.10;;
8042;SDS011;4064;48.132;11.366;2023-04-08T10:08:25;23.30;;;16.07;;
8042;SDS011;4064;48.132;11.366;2023-04-08T10:10:51;18.00;;;15.70;;
8042;SDS011;4064;48.132;11.366;2023-04-08T10:13:19;17.93;;;16.13;;
8042;SDS011;4064;48.132;11.366;2023-04-08T10:15:45;18.20;;;16.00;;
8042;SDS011;4064;48.132;11.366;2023-04-08T10:23:14;17.93;;;16.13;;
8042;SDS011;4064;48.132;11.366;2023-04-08T10:25:42;19.00;;;17.00;;
8042;SDS011;4064;48.132;11.366;2023-04-08T10:33:17;16.73;;;15.07;;
8042;SDS011;4064;48.132;11.366;2023-04-08T10:36:00;17.20;;;15.40;;
8042;SDS011;4064;48.132;11.366;2023-04-08T10:38:35;17.93;;;16.33;;
8042;SDS011;4064;48.132;11.366;2023-04-08T10:41:24;18.73;;;16.40;;
8042;SDS011;4064;48.132;11.366;2023-04-08T10:43:51;18.97;;;17.07;;
8042;SDS011;4064;48.132;11.366;2023-04-08T10:46:16;17.73;;;16.00;;
8042;SDS011;4064;48.132;11.366;2023-04-08T10:48:43;17.43;;;15.67;;
8042;SDS011;4064;48.132;11.366;2023-04-08T10:51:09;18.97;;;17.07;;
8042;SDS011;4064;48.132;11.366;2023-04-08T10:53:36;21.60;;;17.03;;
8042;SDS011;4064;48.132;11.366;2023-04-08T10:58:49;18.97;;;17.17;;
8042;SDS011;4064;48.132;11.366;2023-04-08T11:01:23;17.77;;;16.03;;
8042;SDS011;4064;48.132;11.366;2023-04-08T11:03:49;20.53;;;17.93;;
8042;SDS011;4064;48.132;11.366;2023-04-08T11:06:16;17.10;;;15.40;;
8042;SDS011;4064;48.132;11.366;2023-04-08T11:08:43;16.17;;;14.53;;
8042;SDS011;4064;48.132;11.366;2023-04-08T11:11:09;17.20;;;15.50;;
8042;SDS011;4064;48.132;11.366;2023-04-08T11:13:36;18.53;;;16.50;;
8042;SDS011;4064;48.132;11.366;2023-04-08T11:16:08;19.10;;;16.77;;
8042;SDS011;4064;48.132;11.366;2023-04-08T11:18:34;16.10;;;14.50;;
8042;SDS011;4064;48.132;11.366;2023-04-08T11:21:03;18.60;;;15.63;;
8042;SDS011;4064;48.132;11.366;2023-04-08T11:23:33;19.63;;;17.43;;
8042;SDS011;4064;48.132;11.366;2023-04-08T11:26:00;19.23;;;17.13;;
8042;SDS011;4064;48.132;11.366;2023-04-08T11:28:26;18.27;;;16.23;;
8042;SDS011;4064;48.132;11.366;2023-04-08T11:30:53;17.80;;;15.97;;
8042;SDS011;4064;48.132;11.366;2023-04-08T11:33:19;19.97;;;17.90;;
8042;SDS011;4064;48.132;11.366;2023-04-08T11:35:49;21.17;;;18.90;;
8042;SDS011;4064;48.132;11.366;2023-04-08T11:38:15;18.07;;;16.23;;
8042;SDS011;4064;48.132;11.366;2023-04-08T11:40:52;17.10;;;15.40;;
8042;SDS011;4064;48.132;11.366;2023-04-08T11:43:19;16.60;;;14.90;;
8042;SDS011;4064;48.132;11.366;2023-04-08T11:45:45;18.33;;;14.70;;
8042;SDS011;4064;48.132;11.366;2023-04-08T11:48:11;16.30;;;14.60;;
8042;SDS011;4064;48.132;11.366;2023-04-08T11:50:39;15.40;;;13.80;;
8042;SDS011;4064;48.132;11.366;2023-04-08T11:53:24;16.67;;;15.00;;
8042;SDS011;4064;48.132;11.366;2023-04-08T11:55:50;18.03;;;14.60;;
8042;SDS011;4064;48.132;11.366;2023-04-08T11:58:16;16.33;;;14.73;;
8042;SDS011;4064;48.132;11.366;2023-04-08T12:00:42;16.10;;;14.40;;
8042;SDS011;4064;48.132;11.366;2023-04-08T12:03:09;17.23;;;15.40;;
8042;SDS011;4064;48.132;11.366;2023-04-08T12:05:36;17.80;;;14.60;;
8042;SDS011;4064;48.132;11.366;2023-04-08T12:08:01;17.13;;;15.30;;
8042;SDS011;4064;48.132;11.366;2023-04-08T12:10:27;19.47;;;16.67;;
8042;SDS011;4064;48.132;11.366;2023-04-08T12:12:53;17.87;;;15.97;;
8042;SDS011;4064;48.132;11.366;2023-04-08T12:15:20;17.07;;;15.43;;
8042;SDS011;4064;48.132;11.366;2023-04-08T12:17:46;18.40;;;16.27;;
8042;SDS011;4064;48.132;11.366;2023-04-08T12:20:12;19.23;;;16.63;;
8042;SDS011;4064;48.132;11.366;2023-04-08T12:22:38;18.50;;;16.60;;
8042;SDS011;4064;48.132;11.366;2023-04-08T12:25:04;19.47;;;17.47;;
8042;SDS011;4064;48.132;11.366;2023-04-08T12:27:31;18.73;;;16.83;;
8042;SDS011;4064;48.132;11.366;2023-04-08T12:29:58;18.30;;;16.40;;
8042;SDS011;4064;48.132;11.366;2023-04-08T12:32:25;18.67;;;16.77;;
8042;SDS011;4064;48.132;11.366;2023-04-08T12:34:51;18.93;;;17.00;;
8042;SDS011;4064;48.132;11.366;2023-04-08T12:37:16;18.40;;;16.47;;
8042;SDS011;4064;48.132;11.366;2023-04-08T12:39:42;17.30;;;15.60;;
8042;SDS011;4064;48.132;11.366;2023-04-08T12:42:08;21.00;;;17.60;;
8042;SDS011;4064;48.132;11.366;2023-04-08T12:44:34;17.20;;;15.40;;
8042;SDS011;4064;48.132;11.366;2023-04-08T12:47:00;16.53;;;14.93;;
8042;SDS011;4064;48.132;11.366;2023-04-08T12:49:26;16.80;;;15.10;;
8042;SDS011;4064;48.132;11.366;2023-04-08T12:51:52;19.47;;;17.57;;
8042;SDS011;4064;48.132;11.366;2023-04-08T12:54:19;18.40;;;15.20;;
8042;SDS011;4064;48.132;11.366;2023-04-08T12:56:45;19.00;;;16.03;;
8042;SDS011;4064;48.132;11.366;2023-04-08T12:59:12;17.07;;;15.30;;
8042;SDS011;4064;48.132;11.366;2023-04-08T13:01:39;17.20;;;15.60;;
8042;SDS011;4064;48.132;11.366;2023-04-08T13:04:05;18.40;;;16.40;;
8042;SDS011;4064;48.132;11.366;2023-04-08T13:06:30;17.87;;;16.07;;
8042;SDS011;4064;48.132;11.366;2023-04-08T13:08:56;18.00;;;16.27;;
8042;SDS011;4064;48.132;11.366;2023-04-08T13:11:22;17.47;;;15.60;;
8042;SDS011;4064;48.132;11.366;2023-04-08T13:13:48;18.43;;;16.50;;
8042;SDS011;4064;48.132;11.366;2023-04-08T13:16:14;18.30;;;16.50;;
8042;SDS011;4064;48.132;11.366;2023-04-08T13:18:40;17.87;;;14.10;;
8042;SDS011;4064;48.132;11.366;2023-04-08T13:21:06;20.20;;;18.20;;
8042;SDS011;4064;48.132;11.366;2023-04-08T13:23:33;17.83;;;16.00;;
8042;SDS011;4064;48.132;11.366;2023-04-08T13:25:59;17.33;;;15.43;;
8042;SDS011;4064;48.132;11.366;2023-04-08T13:28:25;18.70;;;16.90;;
8042;SDS011;4064;48.132;11.366;2023-04-08T13:30:51;18.47;;;16.57;;
8042;SDS011;4064;48.132;11.366;2023-04-08T13:33:18;17.13;;;15.07;;
8042;SDS011;4064;48.132;11.366;2023-04-08T13:35:44;18.63;;;16.57;;
8042;SDS011;4064;48.132;11.366;2023-04-08T13:38:10;18.33;;;15.87;;
8042;SDS011;4064;48.132;11.366;2023-04-08T13:40:36;19.03;;;17.07;;
8042;SDS011;4064;48.132;11.366;2023-04-08T13:43:02;17.90;;;15.47;;
8042;SDS011;4064;48.132;11.366;2023-04-08T13:45:28;20.90;;;15.67;;
8042;SDS011;4064;48.132;11.366;2023-04-08T13:47:54;18.43;;;16.53;;
8042;SDS011;4064;48.132;11.366;2023-04-08T13:50:20;19.17;;;16.00;;
8042;SDS011;4064;48.132;11.366;2023-04-08T13:52:46;20.10;;;16.30;;
8042;SDS011;4064;48.132;11.366;2023-04-08T13:55:12;18.17;;;16.27;;
8042;SDS011;4064;48.132;11.366;2023-04-08T13:57:38;17.03;;;15.23;;
8042;SDS011;4064;48.132;11.366;2023-04-08T14:00:04;18.60;;;16.60;;
8042;SDS011;4064;48.132;11.366;2023-04-08T14:02:34;18.33;;;15.57;;
8042;SDS011;4064;48.132;11.366;2023-04-08T14:05:00;20.90;;;17.20;;
8042;SDS011;4064;48.132;11.366;2023-04-08T14:07:26;21.87;;;17.43;;
8042;SDS011;4064;48.132;11.366;2023-04-08T14:09:52;14.87;;;13.27;;
8042;SDS011;4064;48.132;11.366;2023-04-08T14:12:18;15.50;;;12.87;;
8042;SDS011;4064;48.132;11.366;2023-04-08T14:14:44;15.47;;;13.87;;
8042;SDS011;4064;48.132;11.366;2023-04-08T14:17:10;15.13;;;13.03;;
8042;SDS011;4064;48.132;11.366;2023-04-08T14:19:37;15.23;;;13.40;;
8042;SDS011;4064;48.132;11.366;2023-04-08T14:22:03;14.60;;;12.40;;
8042;SDS011;4064;48.132;11.366;2023-04-08T14:24:29;14.37;;;12.97;;
8042;SDS011;4064;48.132;11.366;2023-04-08T14:26:54;13.57;;;12.17;;
8042;SDS011;4064;48.132;11.366;2023-04-08T14:29:21;13.43;;;11.87;;
8042;SDS011;4064;48.132;11.366;2023-04-08T14:31:50;14.97;;;13.50;;
8042;SDS011;4064;48.132;11.366;2023-04-08T14:34:16;16.27;;;13.20;;
8042;SDS011;4064;48.132;11.366;2023-04-08T14:36:42;13.40;;;12.03;;
8042;SDS011;4064;48.132;11.366;2023-04-08T14:39:09;14.07;;;12.67;;
8042;SDS011;4064;48.132;11.366;2023-04-08T14:41:36;15.30;;;13.80;;
8042;SDS011;4064;48.132;11.366;2023-04-08T14:44:02;13.23;;;11.93;;
8042;SDS011;4064;48.132;11.366;2023-04-08T14:46:28;13.70;;;12.40;;
8042;SDS011;4064;48.132;11.366;2023-04-08T14:48:54;13.33;;;12.03;;
8042;SDS011;4064;48.132;11.366;2023-04-08T14:51:20;14.63;;;13.13;;
8042;SDS011;4064;48.132;11.366;2023-04-08T14:53:46;14.10;;;12.60;;
8042;SDS011;4064;48.132;11.366;2023-04-08T14:56:12;14.60;;;13.10;;
8042;SDS011;4064;48.132;11.366;2023-04-08T14:58:38;15.03;;;13.03;;